sensor_id;sensor_type;location;lat;lon;timestamp;pressure;altitude;pressure_sealevel;temperature;humidity
42771;BME280;28426;42.872;25.314;2023-03-14T00:01:22;97133.75;;;-0.46;63.32
42771;BME280;28426;42.872;25.314;2023-03-14T00:03:53;97130.06;;;-0.43;63.56
42771;BME280;28426;42.872;25.314;2023-03-14T00:06:24;97139.06;;;-0.23;62.94
42771;BME280;28426;42.872;25.314;2023-03-14T00:08:55;97132.53;;;0.06;60.25
42771;BME280;28426;42.872;25.314;2023-03-14T00:11:25;97132.66;;;-0.07;59.37
42771;BME280;28426;42.872;25.314;2023-03-14T00:13:59;97128.50;;;-0.46;61.91
42771;BME280;28426;42.872;25.314;2023-03-14T00:16:31;97126.56;;;-0.67;68.58
42771;BME280;28426;42.872;25.314;2023-03-14T00:19:01;97131.13;;;-0.57;64.35
42771;BME280;28426;42.872;25.314;2023-03-14T00:21:32;97135.44;;;-0.45;63.99
42771;BME280;28426;42.872;25.314;2023-03-14T00:24:06;97130.69;;;-0.28;63.34
42771;BME280;28426;42.872;25.314;2023-03-14T00:26:37;97125.13;;;-0.12;62.68
42771;BME280;28426;42.872;25.314;2023-03-14T00:29:10;97115.03;;;0.06;62.12
42771;BME280;28426;42.872;25.314;2023-03-14T00:31:41;97116.44;;;0.22;61.25
42771;BME280;28426;42.872;25.314;2023-03-14T00:34:11;97111.91;;;0.35;60.84
42771;BME280;28426;42.872;25.314;2023-03-14T00:36:42;97109.97;;;0.49;60.48
42771;BME280;28426;42.872;25.314;2023-03-14T00:39:13;97102.09;;;0.60;60.24
42771;BME280;28426;42.872;25.314;2023-03-14T00:41:43;97093.47;;;0.70;59.76
42771;BME280;28426;42.872;25.314;2023-03-14T00:44:17;97086.66;;;0.78;59.30
42771;BME280;28426;42.872;25.314;2023-03-14T00:46:48;97085.19;;;0.86;59.21
42771;BME280;28426;42.872;25.314;2023-03-14T00:49:18;97088.41;;;0.89;58.98
42771;BME280;28426;42.872;25.314;2023-03-14T00:51:51;97094.28;;;0.93;58.75
42771;BME280;28426;42.872;25.314;2023-03-14T00:54:21;97083.47;;;0.96;58.26
42771;BME280;28426;42.872;25.314;2023-03-14T00:56:52;97079.94;;;0.97;58.84
42771;BME280;28426;42.872;25.314;2023-03-14T00:59:25;97082.16;;;1.02;58.31
42771;BME280;28426;42.872;25.314;2023-03-14T01:01:56;97075.00;;;1.04;57.98
42771;BME280;28426;42.872;25.314;2023-03-14T01:04:28;97075.69;;;1.06;57.76
42771;BME280;28426;42.872;25.314;2023-03-14T01:06:58;97078.31;;;1.06;57.81
42771;BME280;28426;42.872;25.314;2023-03-14T01:09:29;97068.66;;;1.07;57.55
42771;BME280;28426;42.872;25.314;2023-03-14T01:12:00;97064.22;;;1.07;57.42
42771;BME280;28426;42.872;25.314;2023-03-14T01:14:33;97065.88;;;1.08;57.45
42771;BME280;28426;42.872;25.314;2023-03-14T01:17:04;97063.25;;;1.08;57.22
42771;BME280;28426;42.872;25.314;2023-03-14T01:19:34;97075.56;;;1.08;57.52
42771;BME280;28426;42.872;25.314;2023-03-14T01:22:05;97074.84;;;1.06;57.78
42771;BME280;28426;42.872;25.314;2023-03-14T01:24:37;97069.03;;;1.02;57.53
42771;BME280;28426;42.872;25.314;2023-03-14T01:27:08;97069.13;;;1.00;57.34
42771;BME280;28426;42.872;25.314;2023-03-14T01:29:41;97061.31;;;0.89;58.21
42771;BME280;28426;42.872;25.314;2023-03-14T01:32:12;97066.25;;;0.82;57.74
42771;BME280;28426;42.872;25.314;2023-03-14T01:34:43;97057.16;;;0.75;58.18
42771;BME280;28426;42.872;25.314;2023-03-14T01:37:13;97056.47;;;0.73;58.21
42771;BME280;28426;42.872;25.314;2023-03-14T01:39:46;97051.25;;;0.61;58.58
42771;BME280;28426;42.872;25.314;2023-03-14T01:42:18;97051.25;;;0.61;58.40
42771;BME280;28426;42.872;25.314;2023-03-14T01:44:53;97048.38;;;0.53;58.93
42771;BME280;28426;42.872;25.314;2023-03-14T01:47:24;97046.50;;;0.55;58.65
42771;BME280;28426;42.872;25.314;2023-03-14T01:49:58;97045.06;;;0.51;58.71
42771;BME280;28426;42.872;25.314;2023-03-14T01:52:33;97042.56;;;0.38;58.93
42771;BME280;28426;42.872;25.314;2023-03-14T01:55:07;97041.41;;;0.19;59.32
42771;BME280;28426;42.872;25.314;2023-03-14T01:57:42;97037.63;;;-0.11;60.39
42771;BME280;28426;42.872;25.314;2023-03-14T02:00:19;97036.28;;;-0.28;62.51
42771;BME280;28426;42.872;25.314;2023-03-14T02:02:53;97035.84;;;-0.22;61.30
42771;BME280;28426;42.872;25.314;2023-03-14T02:05:29;97034.50;;;-0.16;60.90
42771;BME280;28426;42.872;25.314;2023-03-14T02:08:10;97031.91;;;-0.05;60.58
42771;BME280;28426;42.872;25.314;2023-03-14T02:10:48;97024.38;;;-0.09;60.65
42771;BME280;28426;42.872;25.314;2023-03-14T02:13:25;97026.28;;;-0.11;60.52
42771;BME280;28426;42.872;25.314;2023-03-14T02:16:17;97027.72;;;-0.30;60.66
42771;BME280;28426;42.872;25.314;2023-03-14T02:19:31;97021.16;;;-0.47;62.42
42771;BME280;28426;42.872;25.314;2023-03-14T02:22:22;97023.91;;;-0.37;60.87
42771;BME280;28426;42.872;25.314;2023-03-14T02:25:04;97021.41;;;-0.28;60.94
42771;BME280;28426;42.872;25.314;2023-03-14T02:27:39;97013.66;;;-0.18;60.15
42771;BME280;28426;42.872;25.314;2023-03-14T02:30:12;97011.88;;;-0.17;59.73
42771;BME280;28426;42.872;25.314;2023-03-14T02:32:47;97017.13;;;-0.29;59.67
42771;BME280;28426;42.872;25.314;2023-03-14T02:35:21;97016.97;;;-0.50;59.95
42771;BME280;28426;42.872;25.314;2023-03-14T02:37:55;97015.19;;;-0.49;61.22
42771;BME280;28426;42.872;25.314;2023-03-14T02:40:32;97006.03;;;-0.44;60.94
42771;BME280;28426;42.872;25.314;2023-03-14T02:43:05;97006.38;;;-0.48;60.32
42771;BME280;28426;42.872;25.314;2023-03-14T02:45:44;97009.09;;;-0.61;60.02
42771;BME280;28426;42.872;25.314;2023-03-14T02:48:21;97017.53;;;-0.81;60.86
42771;BME280;28426;42.872;25.314;2023-03-14T02:50:55;97014.31;;;-0.84;63.22
42771;BME280;28426;42.872;25.314;2023-03-14T02:53:29;97007.53;;;-0.75;62.00
42771;BME280;28426;42.872;25.314;2023-03-14T02:56:06;97017.19;;;-0.64;61.49
42771;BME280;28426;42.872;25.314;2023-03-14T02:58:40;97023.44;;;-0.54;60.67
42771;BME280;28426;42.872;25.314;2023-03-14T03:01:23;97025.78;;;-0.51;60.18
42771;BME280;28426;42.872;25.314;2023-03-14T03:03:54;97028.88;;;-0.57;60.13
42771;BME280;28426;42.872;25.314;2023-03-14T03:06:24;97031.22;;;-0.77;60.85
42771;BME280;28426;42.872;25.314;2023-03-14T03:08:55;97034.53;;;-0.86;62.86
42771;BME280;28426;42.872;25.314;2023-03-14T03:11:26;97032.16;;;-0.78;62.15
42771;BME280;28426;42.872;25.314;2023-03-14T03:13:59;97045.06;;;-0.75;61.62
42771;BME280;28426;42.872;25.314;2023-03-14T03:16:30;97045.63;;;-0.83;61.37
42771;BME280;28426;42.872;25.314;2023-03-14T03:19:00;97046.16;;;-1.02;63.79
42771;BME280;28426;42.872;25.314;2023-03-14T03:21:31;97046.19;;;-1.26;65.11
42771;BME280;28426;42.872;25.314;2023-03-14T03:24:04;97047.41;;;-1.19;66.66
42771;BME280;28426;42.872;25.314;2023-03-14T03:26:34;97041.13;;;-1.16;66.64
42771;BME280;28426;42.872;25.314;2023-03-14T03:29:11;97038.31;;;-1.02;65.25
42771;BME280;28426;42.872;25.314;2023-03-14T03:31:41;97035.94;;;-0.94;63.59
42771;BME280;28426;42.872;25.314;2023-03-14T03:34:13;97035.00;;;-0.93;62.53
42771;BME280;28426;42.872;25.314;2023-03-14T03:36:46;97033.78;;;-1.00;61.82
42771;BME280;28426;42.872;25.314;2023-03-14T03:39:17;97033.38;;;-1.18;62.72
42771;BME280;28426;42.872;25.314;2023-03-14T03:41:48;97033.16;;;-1.15;63.36
42771;BME280;28426;42.872;25.314;2023-03-14T03:44:22;97037.72;;;-1.06;62.85
42771;BME280;28426;42.872;25.314;2023-03-14T03:46:53;97031.63;;;-1.06;62.09
42771;BME280;28426;42.872;25.314;2023-03-14T03:49:23;97029.19;;;-1.21;62.94
42771;BME280;28426;42.872;25.314;2023-03-14T03:51:54;97028.72;;;-1.14;62.50
42771;BME280;28426;42.872;25.314;2023-03-14T03:54:25;97024.34;;;-1.14;62.17
42771;BME280;28426;42.872;25.314;2023-03-14T03:56:56;97014.88;;;-1.28;62.45
42771;BME280;28426;42.872;25.314;2023-03-14T03:59:30;97011.09;;;-1.48;62.42
42771;BME280;28426;42.872;25.314;2023-03-14T04:02:00;97011.47;;;-1.41;63.14
42771;BME280;28426;42.872;25.314;2023-03-14T04:04:31;97007.47;;;-1.34;62.54
42771;BME280;28426;42.872;25.314;2023-03-14T04:07:03;97002.34;;;-1.36;61.95
42771;BME280;28426;42.872;25.314;2023-03-14T04:09:34;97006.72;;;-1.48;61.97
42771;BME280;28426;42.872;25.314;2023-03-14T04:12:24;97000.19;;;-1.66;62.32
42771;BME280;28426;42.872;25.314;2023-03-14T04:15:08;96995.94;;;-1.56;63.26
42771;BME280;28426;42.872;25.314;2023-03-14T04:17:43;96987.44;;;-1.47;62.66
42771;BME280;28426;42.872;25.314;2023-03-14T04:20:15;96983.47;;;-1.52;62.12
42771;BME280;28426;42.872;25.314;2023-03-14T04:22:46;96977.47;;;-1.66;62.42
42771;BME280;28426;42.872;25.314;2023-03-14T04:25:16;96982.88;;;-1.80;62.75
42771;BME280;28426;42.872;25.314;2023-03-14T04:27:52;96975.72;;;-1.78;64.34
42771;BME280;28426;42.872;25.314;2023-03-14T04:30:29;96968.56;;;-1.63;63.56
42771;BME280;28426;42.872;25.314;2023-03-14T04:33:10;96966.03;;;-1.65;62.40
42771;BME280;28426;42.872;25.314;2023-03-14T04:35:54;96959.91;;;-1.77;63.06
42771;BME280;28426;42.872;25.314;2023-03-14T04:38:24;96970.78;;;-1.70;63.25
42771;BME280;28426;42.872;25.314;2023-03-14T04:40:55;96960.28;;;-1.57;62.26
42771;BME280;28426;42.872;25.314;2023-03-14T04:43:30;96953.13;;;-1.55;61.45
42771;BME280;28426;42.872;25.314;2023-03-14T04:46:12;96954.75;;;-1.65;61.35
42771;BME280;28426;42.872;25.314;2023-03-14T04:48:44;96957.41;;;-1.78;61.75
42771;BME280;28426;42.872;25.314;2023-03-14T04:51:16;96954.09;;;-1.80;62.88
42771;BME280;28426;42.872;25.314;2023-03-14T04:53:50;96947.50;;;-1.62;62.04
42771;BME280;28426;42.872;25.314;2023-03-14T04:56:21;96952.16;;;-1.54;61.16
42771;BME280;28426;42.872;25.314;2023-03-14T04:58:52;96947.50;;;-1.62;61.12
42771;BME280;28426;42.872;25.314;2023-03-14T05:01:25;96946.72;;;-1.75;61.62
42771;BME280;28426;42.872;25.314;2023-03-14T05:04:22;96942.78;;;-1.56;61.81
42771;BME280;28426;42.872;25.314;2023-03-14T05:07:03;96947.94;;;-1.43;61.08
42771;BME280;28426;42.872;25.314;2023-03-14T05:09:45;96940.00;;;-1.42;60.43
42771;BME280;28426;42.872;25.314;2023-03-14T05:12:26;96946.41;;;-1.46;60.47
42771;BME280;28426;42.872;25.314;2023-03-14T05:15:09;96945.63;;;-1.24;60.81
42771;BME280;28426;42.872;25.314;2023-03-14T05:18:09;96938.66;;;-0.89;59.84
42771;BME280;28426;42.872;25.314;2023-03-14T05:20:57;96928.34;;;-0.56;59.64
42771;BME280;28426;42.872;25.314;2023-03-14T05:24:06;96931.75;;;-0.21;58.39
42771;BME280;28426;42.872;25.314;2023-03-14T05:26:56;96932.91;;;0.09;57.02
42771;BME280;28426;42.872;25.314;2023-03-14T05:29:38;96922.66;;;0.38;55.50
42771;BME280;28426;42.872;25.314;2023-03-14T05:32:47;96925.72;;;0.76;55.01
42771;BME280;28426;42.872;25.314;2023-03-14T05:35:23;96918.56;;;1.00;55.40
42771;BME280;28426;42.872;25.314;2023-03-14T05:38:11;96920.91;;;1.24;55.53
42771;BME280;28426;42.872;25.314;2023-03-14T05:40:58;96918.66;;;1.51;54.43
42771;BME280;28426;42.872;25.314;2023-03-14T05:43:55;96916.25;;;1.79;54.45
42771;BME280;28426;42.872;25.314;2023-03-14T05:46:39;96919.06;;;2.07;54.20
42771;BME280;28426;42.872;25.314;2023-03-14T05:49:33;96914.41;;;2.40;54.04
42771;BME280;28426;42.872;25.314;2023-03-14T05:52:15;96915.34;;;2.79;54.31
42771;BME280;28426;42.872;25.314;2023-03-14T05:55:00;96921.53;;;3.17;54.33
42771;BME280;28426;42.872;25.314;2023-03-14T05:57:55;96926.09;;;3.63;54.08
42771;BME280;28426;42.872;25.314;2023-03-14T06:00:38;96931.78;;;3.96;53.02
42771;BME280;28426;42.872;25.314;2023-03-14T06:03:30;96932.16;;;4.29;53.08
42771;BME280;28426;42.872;25.314;2023-03-14T06:06:01;96931.47;;;4.64;52.96
42771;BME280;28426;42.872;25.314;2023-03-14T06:08:35;96928.47;;;5.03;53.33
42771;BME280;28426;42.872;25.314;2023-03-14T06:11:06;96927.75;;;5.46;52.34
42771;BME280;28426;42.872;25.314;2023-03-14T06:13:37;96915.19;;;5.83;51.53
42771;BME280;28426;42.872;25.314;2023-03-14T06:16:09;96914.00;;;6.12;50.41
42771;BME280;28426;42.872;25.314;2023-03-14T06:18:40;96904.59;;;6.34;49.72
42771;BME280;28426;42.872;25.314;2023-03-14T06:21:12;96915.25;;;6.59;49.05
42771;BME280;28426;42.872;25.314;2023-03-14T06:23:49;96912.91;;;6.89;47.80
42771;BME280;28426;42.872;25.314;2023-03-14T06:26:20;96905.44;;;7.18;47.57
42771;BME280;28426;42.872;25.314;2023-03-14T06:28:51;96909.84;;;7.51;46.84
42771;BME280;28426;42.872;25.314;2023-03-14T06:31:22;96920.84;;;7.88;46.25
42771;BME280;28426;42.872;25.314;2023-03-14T06:33:57;96915.84;;;8.24;45.20
42771;BME280;28426;42.872;25.314;2023-03-14T06:36:30;96925.59;;;8.64;44.17
42771;BME280;28426;42.872;25.314;2023-03-14T06:39:05;96913.81;;;9.05;43.14
42771;BME280;28426;42.872;25.314;2023-03-14T06:41:40;96914.22;;;9.47;42.40
42771;BME280;28426;42.872;25.314;2023-03-14T06:44:11;96909.84;;;9.85;41.72
42771;BME280;28426;42.872;25.314;2023-03-14T06:46:41;96908.59;;;10.17;40.37
42771;BME280;28426;42.872;25.314;2023-03-14T06:49:12;96906.78;;;10.40;39.72
42771;BME280;28426;42.872;25.314;2023-03-14T06:51:42;96902.66;;;10.74;39.93
42771;BME280;28426;42.872;25.314;2023-03-14T06:54:16;96900.31;;;11.15;39.60
42771;BME280;28426;42.872;25.314;2023-03-14T06:56:47;96899.94;;;11.53;38.79
42771;BME280;28426;42.872;25.314;2023-03-14T06:59:17;96892.50;;;11.84;37.95
42771;BME280;28426;42.872;25.314;2023-03-14T07:01:49;96890.44;;;12.21;37.62
42771;BME280;28426;42.872;25.314;2023-03-14T07:04:21;96888.88;;;12.67;37.37
42771;BME280;28426;42.872;25.314;2023-03-14T07:06:52;96887.47;;;13.12;36.51
42771;BME280;28426;42.872;25.314;2023-03-14T07:09:26;96883.53;;;13.49;35.25
42771;BME280;28426;42.872;25.314;2023-03-14T07:11:59;96883.47;;;13.76;33.83
42771;BME280;28426;42.872;25.314;2023-03-14T07:14:31;96866.72;;;13.94;33.27
42771;BME280;28426;42.872;25.314;2023-03-14T07:17:02;96869.34;;;14.07;33.16
42771;BME280;28426;42.872;25.314;2023-03-14T07:19:32;96866.81;;;14.19;32.71
42771;BME280;28426;42.872;25.314;2023-03-14T07:22:04;96858.09;;;14.31;32.07
42771;BME280;28426;42.872;25.314;2023-03-14T07:24:37;96865.44;;;14.42;31.65
42771;BME280;28426;42.872;25.314;2023-03-14T07:27:08;96865.72;;;14.59;31.76
42771;BME280;28426;42.872;25.314;2023-03-14T07:29:39;96867.28;;;14.81;30.99
42771;BME280;28426;42.872;25.314;2023-03-14T07:32:09;96855.94;;;15.04;31.04
42771;BME280;28426;42.872;25.314;2023-03-14T07:34:43;96852.75;;;15.14;29.97
42771;BME280;28426;42.872;25.314;2023-03-14T07:37:14;96848.75;;;15.23;29.72
42771;BME280;28426;42.872;25.314;2023-03-14T07:39:47;96835.09;;;15.43;29.36
42771;BME280;28426;42.872;25.314;2023-03-14T07:42:21;96838.84;;;15.80;29.38
42771;BME280;28426;42.872;25.314;2023-03-14T07:45:00;96827.91;;;16.12;28.92
42771;BME280;28426;42.872;25.314;2023-03-14T07:47:31;96825.81;;;16.45;28.05
42771;BME280;28426;42.872;25.314;2023-03-14T07:50:02;96828.69;;;16.74;28.04
42771;BME280;28426;42.872;25.314;2023-03-14T07:52:32;96822.78;;;17.08;27.68
42771;BME280;28426;42.872;25.314;2023-03-14T07:55:06;96818.06;;;17.51;26.99
42771;BME280;28426;42.872;25.314;2023-03-14T07:57:38;96807.22;;;18.04;26.57
42771;BME280;28426;42.872;25.314;2023-03-14T08:00:10;96805.09;;;18.64;25.96
42771;BME280;28426;42.872;25.314;2023-03-14T08:02:42;96799.19;;;19.19;26.03
42771;BME280;28426;42.872;25.314;2023-03-14T08:05:13;96792.28;;;19.68;24.09
42771;BME280;28426;42.872;25.314;2023-03-14T08:07:43;96798.53;;;20.13;23.64
42771;BME280;28426;42.872;25.314;2023-03-14T08:10:17;96792.41;;;20.56;23.40
42771;BME280;28426;42.872;25.314;2023-03-14T08:12:54;96786.50;;;20.92;22.63
42771;BME280;28426;42.872;25.314;2023-03-14T08:15:27;96775.78;;;21.12;21.58
42771;BME280;28426;42.872;25.314;2023-03-14T08:17:59;96780.97;;;21.19;20.98
42771;BME280;28426;42.872;25.314;2023-03-14T08:20:30;96778.59;;;21.23;19.82
42771;BME280;28426;42.872;25.314;2023-03-14T08:23:01;96776.63;;;21.18;18.96
42771;BME280;28426;42.872;25.314;2023-03-14T08:25:34;96768.69;;;21.01;17.47
42771;BME280;28426;42.872;25.314;2023-03-14T08:28:04;96771.63;;;20.94;17.98
42771;BME280;28426;42.872;25.314;2023-03-14T08:30:35;96775.97;;;21.00;18.59
42771;BME280;28426;42.872;25.314;2023-03-14T08:33:12;96773.06;;;21.12;18.40
42771;BME280;28426;42.872;25.314;2023-03-14T08:35:42;96768.81;;;21.27;19.07
42771;BME280;28426;42.872;25.314;2023-03-14T08:38:13;96768.34;;;21.40;17.63
42771;BME280;28426;42.872;25.314;2023-03-14T08:40:47;96768.06;;;21.37;17.96
42771;BME280;28426;42.872;25.314;2023-03-14T08:43:18;96771.84;;;21.36;18.04
42771;BME280;28426;42.872;25.314;2023-03-14T08:45:48;96765.34;;;21.37;17.58
42771;BME280;28426;42.872;25.314;2023-03-14T08:48:19;96760.47;;;21.39;17.19
42771;BME280;28426;42.872;25.314;2023-03-14T08:50:49;96757.78;;;21.44;17.15
42771;BME280;28426;42.872;25.314;2023-03-14T08:53:20;96750.75;;;21.48;17.56
42771;BME280;28426;42.872;25.314;2023-03-14T08:55:55;96764.09;;;21.55;17.02
42771;BME280;28426;42.872;25.314;2023-03-14T08:58:25;96748.84;;;21.54;16.12
42771;BME280;28426;42.872;25.314;2023-03-14T09:00:56;96742.63;;;21.53;16.44
42771;BME280;28426;42.872;25.314;2023-03-14T09:03:27;96739.38;;;21.56;16.76
42771;BME280;28426;42.872;25.314;2023-03-14T09:06:01;96739.38;;;21.56;16.07
42771;BME280;28426;42.872;25.314;2023-03-14T09:08:33;96728.25;;;21.58;16.13
42771;BME280;28426;42.872;25.314;2023-03-14T09:11:09;96729.59;;;21.61;15.69
42771;BME280;28426;42.872;25.314;2023-03-14T09:13:40;96728.50;;;21.51;15.48
42771;BME280;28426;42.872;25.314;2023-03-14T09:16:11;96726.81;;;21.35;15.13
42771;BME280;28426;42.872;25.314;2023-03-14T09:18:42;96710.94;;;21.11;15.25
42771;BME280;28426;42.872;25.314;2023-03-14T09:21:12;96725.50;;;20.94;15.26
42771;BME280;28426;42.872;25.314;2023-03-14T09:23:43;96712.13;;;20.82;14.85
42771;BME280;28426;42.872;25.314;2023-03-14T09:26:16;96709.03;;;20.68;14.96
42771;BME280;28426;42.872;25.314;2023-03-14T09:28:46;96710.56;;;20.54;15.09
42771;BME280;28426;42.872;25.314;2023-03-14T09:31:17;96704.50;;;20.41;14.76
42771;BME280;28426;42.872;25.314;2023-03-14T09:33:48;96703.28;;;20.27;15.36
42771;BME280;28426;42.872;25.314;2023-03-14T09:36:18;96705.84;;;20.11;15.51
42771;BME280;28426;42.872;25.314;2023-03-14T09:38:49;96694.09;;;20.00;15.62
42771;BME280;28426;42.872;25.314;2023-03-14T09:41:25;96687.47;;;19.91;15.20
42771;BME280;28426;42.872;25.314;2023-03-14T09:44:01;96695.75;;;19.79;14.97
42771;BME280;28426;42.872;25.314;2023-03-14T09:46:35;96670.13;;;19.59;14.48
42771;BME280;28426;42.872;25.314;2023-03-14T09:49:12;96680.47;;;19.40;15.58
42771;BME280;28426;42.872;25.314;2023-03-14T09:51:46;96669.19;;;19.26;15.64
42771;BME280;28426;42.872;25.314;2023-03-14T09:54:31;96668.78;;;19.12;15.08
42771;BME280;28426;42.872;25.314;2023-03-14T09:57:12;96669.34;;;18.97;15.84
42771;BME280;28426;42.872;25.314;2023-03-14T09:59:45;96660.78;;;18.82;15.60
42771;BME280;28426;42.872;25.314;2023-03-14T10:02:18;96666.03;;;18.72;16.73
42771;BME280;28426;42.872;25.314;2023-03-14T10:04:51;96664.06;;;18.67;16.79
42771;BME280;28426;42.872;25.314;2023-03-14T10:07:27;96660.50;;;18.62;15.87
42771;BME280;28426;42.872;25.314;2023-03-14T10:09:59;96657.97;;;18.55;16.23
42771;BME280;28426;42.872;25.314;2023-03-14T10:12:37;96647.34;;;18.48;15.84
42771;BME280;28426;42.872;25.314;2023-03-14T10:15:12;96638.88;;;18.45;15.83
42771;BME280;28426;42.872;25.314;2023-03-14T10:17:47;96640.38;;;18.35;16.49
42771;BME280;28426;42.872;25.314;2023-03-14T10:20:31;96634.47;;;18.38;16.46
42771;BME280;28426;42.872;25.314;2023-03-14T10:23:04;96632.03;;;18.37;16.98
42771;BME280;28426;42.872;25.314;2023-03-14T10:25:37;96638.25;;;18.37;16.67
42771;BME280;28426;42.872;25.314;2023-03-14T10:28:23;96630.41;;;18.36;15.96
42771;BME280;28426;42.872;25.314;2023-03-14T10:30:55;96624.09;;;18.30;16.53
42771;BME280;28426;42.872;25.314;2023-03-14T10:33:29;96619.44;;;18.25;16.49
42771;BME280;28426;42.872;25.314;2023-03-14T10:36:02;96619.44;;;18.25;17.29
42771;BME280;28426;42.872;25.314;2023-03-14T10:38:35;96612.22;;;18.31;16.84
42771;BME280;28426;42.872;25.314;2023-03-14T10:41:16;96606.16;;;18.41;17.23
42771;BME280;28426;42.872;25.314;2023-03-14T10:43:54;96609.28;;;18.50;17.90
42771;BME280;28426;42.872;25.314;2023-03-14T10:46:30;96608.47;;;18.72;17.82
42771;BME280;28426;42.872;25.314;2023-03-14T10:49:26;96596.34;;;18.97;18.08
42771;BME280;28426;42.872;25.314;2023-03-14T10:52:02;96591.72;;;19.14;16.72
42771;BME280;28426;42.872;25.314;2023-03-14T10:54:47;96596.75;;;19.28;17.98
42771;BME280;28426;42.872;25.314;2023-03-14T10:57:19;96577.94;;;19.43;17.88
42771;BME280;28426;42.872;25.314;2023-03-14T10:59:53;96582.44;;;19.60;17.74
42771;BME280;28426;42.872;25.314;2023-03-14T11:02:48;96563.94;;;19.79;17.54
42771;BME280;28426;42.872;25.314;2023-03-14T11:05:27;96568.47;;;20.01;18.38
42771;BME280;28426;42.872;25.314;2023-03-14T11:08:02;96560.44;;;20.17;18.15
42771;BME280;28426;42.872;25.314;2023-03-14T11:10:38;96549.16;;;20.30;18.26
42771;BME280;28426;42.872;25.314;2023-03-14T11:13:16;96547.88;;;20.43;16.59
42771;BME280;28426;42.872;25.314;2023-03-14T11:15:58;96545.50;;;20.52;16.79
42771;BME280;28426;42.872;25.314;2023-03-14T11:18:53;96521.88;;;20.52;17.43
42771;BME280;28426;42.872;25.314;2023-03-14T11:21:29;96518.16;;;20.64;16.19
42771;BME280;28426;42.872;25.314;2023-03-14T11:24:25;96508.94;;;20.65;17.04
42771;BME280;28426;42.872;25.314;2023-03-14T11:27:00;96496.75;;;20.73;17.73
42771;BME280;28426;42.872;25.314;2023-03-14T11:29:39;96496.56;;;20.85;18.08
42771;BME280;28426;42.872;25.314;2023-03-14T11:32:36;96494.44;;;20.97;17.12
42771;BME280;28426;42.872;25.314;2023-03-14T11:35:16;96482.28;;;21.10;18.42
42771;BME280;28426;42.872;25.314;2023-03-14T11:37:52;96479.03;;;21.24;18.36
42771;BME280;28426;42.872;25.314;2023-03-14T11:40:27;96470.63;;;21.36;18.34
42771;BME280;28426;42.872;25.314;2023-03-14T11:43:01;96479.31;;;21.48;17.89
42771;BME280;28426;42.872;25.314;2023-03-14T11:45:35;96469.53;;;21.58;17.70
42771;BME280;28426;42.872;25.314;2023-03-14T11:48:15;96468.19;;;21.60;17.31
42771;BME280;28426;42.872;25.314;2023-03-14T11:50:50;96464.66;;;21.60;17.73
42771;BME280;28426;42.872;25.314;2023-03-14T11:53:29;96467.91;;;21.56;17.31
42771;BME280;28426;42.872;25.314;2023-03-14T11:56:11;96465.19;;;21.51;17.56
42771;BME280;28426;42.872;25.314;2023-03-14T11:58:51;96456.78;;;21.48;17.68
42771;BME280;28426;42.872;25.314;2023-03-14T12:01:27;96461.38;;;21.47;18.06
42771;BME280;28426;42.872;25.314;2023-03-14T12:04:06;96453.81;;;21.44;17.52
42771;BME280;28426;42.872;25.314;2023-03-14T12:06:47;96458.13;;;21.45;18.14
42771;BME280;28426;42.872;25.314;2023-03-14T12:09:20;96444.28;;;21.36;17.59
42771;BME280;28426;42.872;25.314;2023-03-14T12:11:53;96437.50;;;21.18;17.33
42771;BME280;28426;42.872;25.314;2023-03-14T12:14:27;96430.69;;;20.95;17.61
42771;BME280;28426;42.872;25.314;2023-03-14T12:17:04;96434.72;;;20.76;18.15
42771;BME280;28426;42.872;25.314;2023-03-14T12:19:39;96429.78;;;20.58;18.27
42771;BME280;28426;42.872;25.314;2023-03-14T12:22:27;96424.31;;;20.42;17.20
42771;BME280;28426;42.872;25.314;2023-03-14T12:25:02;96423.13;;;20.17;18.09
42771;BME280;28426;42.872;25.314;2023-03-14T12:30:43;96415.63;;;19.43;18.38
42771;BME280;28426;42.872;25.314;2023-03-14T12:33:27;96405.88;;;19.10;17.63
42771;BME280;28426;42.872;25.314;2023-03-14T12:36:11;96398.19;;;18.68;18.54
42771;BME280;28426;42.872;25.314;2023-03-14T12:39:05;96390.75;;;18.31;18.95
42771;BME280;28426;42.872;25.314;2023-03-14T12:41:44;96386.91;;;18.04;19.53
42771;BME280;28426;42.872;25.314;2023-03-14T12:44:44;96385.31;;;17.86;19.66
42771;BME280;28426;42.872;25.314;2023-03-14T12:47:50;96372.97;;;17.68;19.40
42771;BME280;28426;42.872;25.314;2023-03-14T12:50:26;96368.66;;;17.50;19.49
42771;BME280;28426;42.872;25.314;2023-03-14T12:56:08;96362.56;;;17.20;20.02
42771;BME280;28426;42.872;25.314;2023-03-14T12:58:44;96364.28;;;17.09;20.23
42771;BME280;28426;42.872;25.314;2023-03-14T13:01:20;96358.13;;;16.97;20.26
42771;BME280;28426;42.872;25.314;2023-03-14T13:03:52;96356.31;;;16.85;20.04
42771;BME280;28426;42.872;25.314;2023-03-14T13:06:46;96354.84;;;16.78;20.54
42771;BME280;28426;42.872;25.314;2023-03-14T13:12:37;96354.34;;;16.64;20.49
42771;BME280;28426;42.872;25.314;2023-03-14T13:15:21;96343.72;;;16.57;20.83
42771;BME280;28426;42.872;25.314;2023-03-14T13:17:56;96342.78;;;16.51;21.04
42771;BME280;28426;42.872;25.314;2023-03-14T13:20:31;96340.59;;;16.48;21.14
42771;BME280;28426;42.872;25.314;2023-03-14T13:23:03;96328.09;;;16.42;20.93
42771;BME280;28426;42.872;25.314;2023-03-14T13:25:35;96326.38;;;16.36;20.94
42771;BME280;28426;42.872;25.314;2023-03-14T13:28:10;96313.97;;;16.34;21.25
42771;BME280;28426;42.872;25.314;2023-03-14T13:30:42;96325.56;;;16.35;21.49
42771;BME280;28426;42.872;25.314;2023-03-14T13:33:16;96316.69;;;16.34;21.84
42771;BME280;28426;42.872;25.314;2023-03-14T13:35:54;96310.38;;;16.29;21.44
42771;BME280;28426;42.872;25.314;2023-03-14T13:38:26;96310.28;;;16.24;21.58
42771;BME280;28426;42.872;25.314;2023-03-14T13:40:58;96303.50;;;16.21;21.92
42771;BME280;28426;42.872;25.314;2023-03-14T13:43:34;96306.13;;;16.16;21.30
42771;BME280;28426;42.872;25.314;2023-03-14T13:46:11;96295.63;;;16.02;21.57